sensor_id;sensor_type;location;lat;lon;timestamp;P1;durP1;ratioP1;P2;durP2;ratioP2
13611;SDS011;6877;51.436;6.774;2023-05-20T00:02:04;7.72;;;2.97;;
13611;SDS011;6877;51.436;6.774;2023-05-20T00:04:31;5.47;;;3.10;;
13611;SDS011;6877;51.436;6.774;2023-05-20T00:06:57;4.68;;;3.10;;
13611;SDS011;6877;51.436;6.774;2023-05-20T00:09:24;6.80;;;3.92;;
13611;SDS011;6877;51.436;6.774;2023-05-20T00:11:50;6.05;;;2.63;;
13611;SDS011;6877;51.436;6.774;2023-05-20T00:14:16;5.57;;;2.80;;
13611;SDS011;6877;51.436;6.774;2023-05-20T00:16:48;5.60;;;2.58;;
13611;SDS011;6877;51.436;6.774;2023-05-20T00:19:19;5.47;;;2.97;;
13611;SDS011;6877;51.436;6.774;2023-05-20T00:21:51;4.22;;;2.83;;
13611;SDS011;6877;51.436;6.774;2023-05-20T00:24:23;4.20;;;2.92;;
13611;SDS011;6877;51.436;6.774;2023-05-20T00:26:50;6.97;;;3.00;;
13611;SDS011;6877;51.436;6.774;2023-05-20T00:29:16;5.95;;;3.42;;
13611;SDS011;6877;51.436;6.774;2023-05-20T00:31:48;6.65;;;4.43;;
13611;SDS011;6877;51.436;6.774;2023-05-20T00:34:14;7.07;;;3.25;;
13611;SDS011;6877;51.436;6.774;2023-05-20T00:36:41;6.28;;;3.08;;
13611;SDS011;6877;51.436;6.774;2023-05-20T00:39:13;4.20;;;2.92;;
13611;SDS011;6877;51.436;6.774;2023-05-20T00:41:39;3.67;;;2.95;;
13611;SDS011;6877;51.436;6.774;2023-05-20T00:44:06;4.30;;;2.35;;
13611;SDS011;6877;51.436;6.774;2023-05-20T00:46:32;6.25;;;3.13;;
13611;SDS011;6877;51.436;6.774;2023-05-20T00:49:00;7.28;;;3.17;;
13611;SDS011;6877;51.436;6.774;2023-05-20T00:51:27;6.43;;;3.28;;
13611;SDS011;6877;51.436;6.774;2023-05-20T00:53:58;7.25;;;2.92;;
13611;SDS011;6877;51.436;6.774;2023-05-20T00:56:30;4.65;;;3.22;;
13611;SDS011;6877;51.436;6.774;2023-05-20T00:58:57;5.18;;;3.03;;
13611;SDS011;6877;51.436;6.774;2023-05-20T01:01:23;4.15;;;2.97;;
13611;SDS011;6877;51.436;6.774;2023-05-20T01:03:55;4.70;;;2.85;;
13611;SDS011;6877;51.436;6.774;2023-05-20T01:06:26;4.80;;;3.13;;
13611;SDS011;6877;51.436;6.774;2023-05-20T01:08:53;5.22;;;2.85;;
13611;SDS011;6877;51.436;6.774;2023-05-20T01:11:21;4.10;;;2.58;;
13611;SDS011;6877;51.436;6.774;2023-05-20T01:14:02;5.07;;;3.33;;
13611;SDS011;6877;51.436;6.774;2023-05-20T01:16:32;3.92;;;3.05;;
13611;SDS011;6877;51.436;6.774;2023-05-20T01:19:01;3.47;;;2.88;;
13611;SDS011;6877;51.436;6.774;2023-05-20T01:21:32;4.45;;;3.00;;
13611;SDS011;6877;51.436;6.774;2023-05-20T01:23:59;5.50;;;3.10;;
13611;SDS011;6877;51.436;6.774;2023-05-20T01:26:26;4.75;;;3.58;;
13611;SDS011;6877;51.436;6.774;2023-05-20T01:28:53;3.92;;;3.20;;
13611;SDS011;6877;51.436;6.774;2023-05-20T01:31:25;4.47;;;3.20;;
13611;SDS011;6877;51.436;6.774;2023-05-20T01:34:01;4.47;;;3.28;;
13611;SDS011;6877;51.436;6.774;2023-05-20T01:36:34;5.82;;;3.10;;
13611;SDS011;6877;51.436;6.774;2023-05-20T01:39:06;6.55;;;3.15;;
13611;SDS011;6877;51.436;6.774;2023-05-20T01:41:38;4.35;;;3.00;;
13611;SDS011;6877;51.436;6.774;2023-05-20T01:44:06;4.10;;;2.78;;
13611;SDS011;6877;51.436;6.774;2023-05-20T01:46:32;6.35;;;3.05;;
13611;SDS011;6877;51.436;6.774;2023-05-20T01:48:59;4.78;;;2.90;;
13611;SDS011;6877;51.436;6.774;2023-05-20T01:51:26;6.80;;;3.35;;
13611;SDS011;6877;51.436;6.774;2023-05-20T01:53:52;4.47;;;2.72;;
13611;SDS011;6877;51.436;6.774;2023-05-20T01:56:19;3.28;;;2.90;;
13611;SDS011;6877;51.436;6.774;2023-05-20T01:58:52;3.92;;;3.00;;
13611;SDS011;6877;51.436;6.774;2023-05-20T02:01:18;5.13;;;2.70;;
13611;SDS011;6877;51.436;6.774;2023-05-20T02:03:45;4.03;;;2.72;;
13611;SDS011;6877;51.436;6.774;2023-05-20T02:06:11;3.33;;;2.75;;
13611;SDS011;6877;51.436;6.774;2023-05-20T02:08:37;3.47;;;2.70;;
13611;SDS011;6877;51.436;6.774;2023-05-20T02:11:04;4.05;;;2.90;;
13611;SDS011;6877;51.436;6.774;2023-05-20T02:13:35;3.40;;;2.83;;
13611;SDS011;6877;51.436;6.774;2023-05-20T02:16:07;4.93;;;2.95;;
13611;SDS011;6877;51.436;6.774;2023-05-20T02:18:33;4.35;;;3.05;;
13611;SDS011;6877;51.436;6.774;2023-05-20T02:21:01;5.70;;;3.00;;
13611;SDS011;6877;51.436;6.774;2023-05-20T02:23:29;4.40;;;2.72;;
13611;SDS011;6877;51.436;6.774;2023-05-20T02:25:56;4.25;;;2.70;;
13611;SDS011;6877;51.436;6.774;2023-05-20T02:28:27;5.50;;;3.17;;
13611;SDS011;6877;51.436;6.774;2023-05-20T02:30:59;9.00;;;3.20;;
13611;SDS011;6877;51.436;6.774;2023-05-20T02:33:25;5.97;;;2.97;;
13611;SDS011;6877;51.436;6.774;2023-05-20T02:35:54;6.07;;;3.15;;
13611;SDS011;6877;51.436;6.774;2023-05-20T02:38:20;4.65;;;3.28;;
13611;SDS011;6877;51.436;6.774;2023-05-20T02:40:46;4.32;;;3.00;;
13611;SDS011;6877;51.436;6.774;2023-05-20T02:43:18;4.28;;;3.03;;
13611;SDS011;6877;51.436;6.774;2023-05-20T02:45:44;5.00;;;3.60;;
13611;SDS011;6877;51.436;6.774;2023-05-20T02:48:17;3.28;;;2.85;;
13611;SDS011;6877;51.436;6.774;2023-05-20T02:50:48;7.68;;;3.42;;
13611;SDS011;6877;51.436;6.774;2023-05-20T02:53:20;3.78;;;3.35;;
13611;SDS011;6877;51.436;6.774;2023-05-20T02:55:52;4.28;;;3.22;;
13611;SDS011;6877;51.436;6.774;2023-05-20T02:58:18;6.05;;;3.28;;
13611;SDS011;6877;51.436;6.774;2023-05-20T03:00:51;3.70;;;2.80;;
13611;SDS011;6877;51.436;6.774;2023-05-20T03:03:18;8.50;;;3.75;;
13611;SDS011;6877;51.436;6.774;2023-05-20T03:05:45;5.47;;;3.50;;
13611;SDS011;6877;51.436;6.774;2023-05-20T03:08:11;4.47;;;3.60;;
13611;SDS011;6877;51.436;6.774;2023-05-20T03:10:38;3.70;;;3.20;;
13611;SDS011;6877;51.436;6.774;2023-05-20T03:13:05;4.78;;;3.58;;
13611;SDS011;6877;51.436;6.774;2023-05-20T03:15:34;7.40;;;3.72;;
13611;SDS011;6877;51.436;6.774;2023-05-20T03:18:01;6.18;;;3.00;;
13611;SDS011;6877;51.436;6.774;2023-05-20T03:20:33;6.55;;;3.10;;
13611;SDS011;6877;51.436;6.774;2023-05-20T03:23:03;4.53;;;3.20;;
13611;SDS011;6877;51.436;6.774;2023-05-20T03:25:31;16.48;;;3.42;;
13611;SDS011;6877;51.436;6.774;2023-05-20T03:27:57;5.35;;;3.80;;
13611;SDS011;6877;51.436;6.774;2023-05-20T03:30:25;6.45;;;3.58;;
13611;SDS011;6877;51.436;6.774;2023-05-20T03:32:52;5.13;;;3.58;;
13611;SDS011;6877;51.436;6.774;2023-05-20T03:35:19;9.48;;;4.07;;
13611;SDS011;6877;51.436;6.774;2023-05-20T03:37:46;4.88;;;3.60;;
13611;SDS011;6877;51.436;6.774;2023-05-20T03:40:12;7.47;;;3.63;;
13611;SDS011;6877;51.436;6.774;2023-05-20T03:42:39;7.05;;;3.58;;
13611;SDS011;6877;51.436;6.774;2023-05-20T03:45:05;4.57;;;3.30;;
13611;SDS011;6877;51.436;6.774;2023-05-20T03:47:32;5.63;;;4.00;;
13611;SDS011;6877;51.436;6.774;2023-05-20T03:49:59;5.70;;;3.20;;
13611;SDS011;6877;51.436;6.774;2023-05-20T03:52:25;9.60;;;3.75;;
13611;SDS011;6877;51.436;6.774;2023-05-20T03:54:52;6.57;;;4.80;;
13611;SDS011;6877;51.436;6.774;2023-05-20T03:57:19;6.32;;;4.05;;
13611;SDS011;6877;51.436;6.774;2023-05-20T03:59:45;6.45;;;3.53;;
13611;SDS011;6877;51.436;6.774;2023-05-20T04:02:12;7.47;;;3.40;;
13611;SDS011;6877;51.436;6.774;2023-05-20T04:04:38;4.82;;;3.47;;
13611;SDS011;6877;51.436;6.774;2023-05-20T04:07:11;9.55;;;4.20;;
13611;SDS011;6877;51.436;6.774;2023-05-20T04:09:37;5.57;;;3.60;;
13611;SDS011;6877;51.436;6.774;2023-05-20T04:12:04;6.90;;;3.88;;
13611;SDS011;6877;51.436;6.774;2023-05-20T04:14:32;7.10;;;3.38;;
13611;SDS011;6877;51.436;6.774;2023-05-20T04:17:02;6.13;;;3.80;;
13611;SDS011;6877;51.436;6.774;2023-05-20T04:19:29;5.55;;;4.00;;
13611;SDS011;6877;51.436;6.774;2023-05-20T04:21:56;6.50;;;3.83;;
13611;SDS011;6877;51.436;6.774;2023-05-20T04:24:27;8.02;;;4.95;;
13611;SDS011;6877;51.436;6.774;2023-05-20T04:26:54;4.82;;;3.30;;
13611;SDS011;6877;51.436;6.774;2023-05-20T04:29:20;6.82;;;3.40;;
13611;SDS011;6877;51.436;6.774;2023-05-20T04:31:53;6.85;;;3.80;;
13611;SDS011;6877;51.436;6.774;2023-05-20T04:34:19;16.10;;;4.97;;
13611;SDS011;6877;51.436;6.774;2023-05-20T04:36:51;6.15;;;3.70;;
13611;SDS011;6877;51.436;6.774;2023-05-20T04:39:18;6.55;;;3.47;;
13611;SDS011;6877;51.436;6.774;2023-05-20T04:41:45;3.95;;;3.20;;
13611;SDS011;6877;51.436;6.774;2023-05-20T04:44:13;7.85;;;3.72;;
13611;SDS011;6877;51.436;6.774;2023-05-20T04:46:39;9.10;;;4.00;;
13611;SDS011;6877;51.436;6.774;2023-05-20T04:49:06;4.80;;;3.67;;
13611;SDS011;6877;51.436;6.774;2023-05-20T04:51:33;6.05;;;3.45;;
13611;SDS011;6877;51.436;6.774;2023-05-20T04:54:05;6.38;;;3.53;;
13611;SDS011;6877;51.436;6.774;2023-05-20T04:56:32;6.40;;;3.42;;
13611;SDS011;6877;51.436;6.774;2023-05-20T04:59:03;4.97;;;3.90;;
13611;SDS011;6877;51.436;6.774;2023-05-20T05:01:35;9.60;;;3.45;;
13611;SDS011;6877;51.436;6.774;2023-05-20T05:04:07;8.40;;;4.75;;
13611;SDS011;6877;51.436;6.774;2023-05-20T05:06:33;8.20;;;4.53;;
13611;SDS011;6877;51.436;6.774;2023-05-20T05:09:00;6.97;;;3.65;;
13611;SDS011;6877;51.436;6.774;2023-05-20T05:11:26;7.43;;;3.90;;
13611;SDS011;6877;51.436;6.774;2023-05-20T05:13:53;8.75;;;3.90;;
13611;SDS011;6877;51.436;6.774;2023-05-20T05:16:25;9.82;;;4.05;;
13611;SDS011;6877;51.436;6.774;2023-05-20T05:18:57;4.78;;;3.92;;
13611;SDS011;6877;51.436;6.774;2023-05-20T05:21:23;5.57;;;3.78;;
13611;SDS011;6877;51.436;6.774;2023-05-20T05:23:50;6.47;;;3.65;;
13611;SDS011;6877;51.436;6.774;2023-05-20T05:26:16;4.10;;;3.55;;
13611;SDS011;6877;51.436;6.774;2023-05-20T05:28:42;7.10;;;3.92;;
13611;SDS011;6877;51.436;6.774;2023-05-20T05:31:09;6.32;;;4.13;;
13611;SDS011;6877;51.436;6.774;2023-05-20T05:33:40;12.63;;;3.92;;
13611;SDS011;6877;51.436;6.774;2023-05-20T05:36:07;4.28;;;3.55;;
13611;SDS011;6877;51.436;6.774;2023-05-20T05:38:33;10.45;;;4.55;;
13611;SDS011;6877;51.436;6.774;2023-05-20T05:41:05;5.68;;;3.70;;
13611;SDS011;6877;51.436;6.774;2023-05-20T05:43:31;6.68;;;3.83;;
13611;SDS011;6877;51.436;6.774;2023-05-20T05:46:03;5.07;;;3.85;;
13611;SDS011;6877;51.436;6.774;2023-05-20T05:48:30;7.63;;;4.70;;
13611;SDS011;6877;51.436;6.774;2023-05-20T05:50:56;8.45;;;3.80;;
13611;SDS011;6877;51.436;6.774;2023-05-20T05:53:23;6.85;;;3.72;;
13611;SDS011;6877;51.436;6.774;2023-05-20T05:55:54;9.93;;;4.85;;
13611;SDS011;6877;51.436;6.774;2023-05-20T05:58:20;6.90;;;3.40;;
13611;SDS011;6877;51.436;6.774;2023-05-20T06:00:49;9.50;;;4.32;;
13611;SDS011;6877;51.436;6.774;2023-05-20T06:03:16;5.28;;;3.53;;
13611;SDS011;6877;51.436;6.774;2023-05-20T06:05:46;10.55;;;4.80;;
13611;SDS011;6877;51.436;6.774;2023-05-20T06:08:12;6.03;;;4.43;;
13611;SDS011;6877;51.436;6.774;2023-05-20T06:10:39;9.43;;;4.20;;
13611;SDS011;6877;51.436;6.774;2023-05-20T06:13:10;7.85;;;4.43;;
13611;SDS011;6877;51.436;6.774;2023-05-20T06:15:38;9.30;;;4.35;;
13611;SDS011;6877;51.436;6.774;2023-05-20T06:18:11;8.18;;;4.15;;
13611;SDS011;6877;51.436;6.774;2023-05-20T06:20:37;6.90;;;4.15;;
13611;SDS011;6877;51.436;6.774;2023-05-20T06:23:04;10.13;;;4.20;;
13611;SDS011;6877;51.436;6.774;2023-05-20T06:25:30;6.15;;;3.97;;
13611;SDS011;6877;51.436;6.774;2023-05-20T06:27:57;5.53;;;3.97;;
13611;SDS011;6877;51.436;6.774;2023-05-20T06:30:28;4.43;;;3.67;;
13611;SDS011;6877;51.436;6.774;2023-05-20T06:32:55;7.20;;;3.97;;
13611;SDS011;6877;51.436;6.774;2023-05-20T06:35:21;6.00;;;3.95;;
13611;SDS011;6877;51.436;6.774;2023-05-20T06:37:48;6.50;;;3.72;;
13611;SDS011;6877;51.436;6.774;2023-05-20T06:40:14;5.85;;;4.15;;
13611;SDS011;6877;51.436;6.774;2023-05-20T06:42:41;5.68;;;3.95;;
13611;SDS011;6877;51.436;6.774;2023-05-20T06:45:07;10.65;;;4.85;;
13611;SDS011;6877;51.436;6.774;2023-05-20T06:47:34;6.90;;;4.13;;
13611;SDS011;6877;51.436;6.774;2023-05-20T06:50:06;6.47;;;3.65;;
13611;SDS011;6877;51.436;6.774;2023-05-20T06:52:32;8.25;;;4.15;;
13611;SDS011;6877;51.436;6.774;2023-05-20T06:54:59;6.15;;;4.45;;
13611;SDS011;6877;51.436;6.774;2023-05-20T06:57:25;10.13;;;4.45;;
13611;SDS011;6877;51.436;6.774;2023-05-20T06:59:52;9.48;;;5.05;;
13611;SDS011;6877;51.436;6.774;2023-05-20T07:02:18;7.10;;;3.88;;
13611;SDS011;6877;51.436;6.774;2023-05-20T07:04:51;7.00;;;4.85;;
13611;SDS011;6877;51.436;6.774;2023-05-20T07:07:22;7.50;;;4.60;;
13611;SDS011;6877;51.436;6.774;2023-05-20T07:09:49;10.80;;;4.60;;
13611;SDS011;6877;51.436;6.774;2023-05-20T07:12:15;8.32;;;4.82;;
13611;SDS011;6877;51.436;6.774;2023-05-20T07:14:42;9.40;;;3.97;;
13611;SDS011;6877;51.436;6.774;2023-05-20T07:17:13;7.03;;;4.57;;
13611;SDS011;6877;51.436;6.774;2023-05-20T07:19:39;8.05;;;4.78;;
13611;SDS011;6877;51.436;6.774;2023-05-20T07:22:06;5.25;;;4.75;;
13611;SDS011;6877;51.436;6.774;2023-05-20T07:24:32;6.60;;;4.53;;
13611;SDS011;6877;51.436;6.774;2023-05-20T07:26:59;7.60;;;4.80;;
13611;SDS011;6877;51.436;6.774;2023-05-20T07:29:26;9.30;;;4.50;;
13611;SDS011;6877;51.436;6.774;2023-05-20T07:31:53;7.78;;;5.07;;
13611;SDS011;6877;51.436;6.774;2023-05-20T07:34:24;12.05;;;4.85;;
13611;SDS011;6877;51.436;6.774;2023-05-20T07:36:51;9.50;;;5.00;;
13611;SDS011;6877;51.436;6.774;2023-05-20T07:39:18;7.28;;;4.80;;
13611;SDS011;6877;51.436;6.774;2023-05-20T07:41:44;11.82;;;5.22;;
13611;SDS011;6877;51.436;6.774;2023-05-20T07:44:11;5.47;;;4.55;;
13611;SDS011;6877;51.436;6.774;2023-05-20T07:46:38;6.90;;;5.05;;
13611;SDS011;6877;51.436;6.774;2023-05-20T07:49:05;7.88;;;5.50;;
13611;SDS011;6877;51.436;6.774;2023-05-20T07:51:31;12.73;;;5.70;;
13611;SDS011;6877;51.436;6.774;2023-05-20T07:53:58;7.43;;;5.45;;
13611;SDS011;6877;51.436;6.774;2023-05-20T07:56:29;8.10;;;5.47;;
13611;SDS011;6877;51.436;6.774;2023-05-20T07:59:01;7.30;;;5.13;;
13611;SDS011;6877;51.436;6.774;2023-05-20T08:01:28;6.35;;;5.07;;
13611;SDS011;6877;51.436;6.774;2023-05-20T08:03:58;11.32;;;6.05;;
13611;SDS011;6877;51.436;6.774;2023-05-20T08:06:24;11.95;;;5.75;;
13611;SDS011;6877;51.436;6.774;2023-05-20T08:08:51;10.95;;;6.50;;
13611;SDS011;6877;51.436;6.774;2023-05-20T08:11:21;8.48;;;5.63;;
13611;SDS011;6877;51.436;6.774;2023-05-20T08:13:47;13.88;;;5.88;;
13611;SDS011;6877;51.436;6.774;2023-05-20T08:16:14;10.48;;;5.50;;
13611;SDS011;6877;51.436;6.774;2023-05-20T08:18:46;12.00;;;5.97;;
13611;SDS011;6877;51.436;6.774;2023-05-20T08:21:12;9.63;;;5.63;;
13611;SDS011;6877;51.436;6.774;2023-05-20T08:23:47;9.63;;;5.80;;
13611;SDS011;6877;51.436;6.774;2023-05-20T08:26:13;8.80;;;5.75;;
13611;SDS011;6877;51.436;6.774;2023-05-20T08:28:45;10.07;;;5.38;;
13611;SDS011;6877;51.436;6.774;2023-05-20T08:31:11;8.27;;;5.07;;
13611;SDS011;6877;51.436;6.774;2023-05-20T08:33:38;9.65;;;5.68;;
13611;SDS011;6877;51.436;6.774;2023-05-20T08:36:05;8.25;;;5.28;;
13611;SDS011;6877;51.436;6.774;2023-05-20T08:38:38;10.95;;;5.22;;
13611;SDS011;6877;51.436;6.774;2023-05-20T08:41:04;9.00;;;5.47;;
13611;SDS011;6877;51.436;6.774;2023-05-20T08:43:31;10.32;;;5.82;;
13611;SDS011;6877;51.436;6.774;2023-05-20T08:45:57;8.73;;;5.68;;
13611;SDS011;6877;51.436;6.774;2023-05-20T08:48:25;8.02;;;5.90;;
13611;SDS011;6877;51.436;6.774;2023-05-20T08:50:53;12.68;;;5.97;;
13611;SDS011;6877;51.436;6.774;2023-05-20T08:53:22;13.68;;;5.97;;
13611;SDS011;6877;51.436;6.774;2023-05-20T08:55:56;8.20;;;5.75;;
13611;SDS011;6877;51.436;6.774;2023-05-20T08:58:28;8.48;;;6.20;;
13611;SDS011;6877;51.436;6.774;2023-05-20T09:00:55;7.35;;;5.20;;
13611;SDS011;6877;51.436;6.774;2023-05-20T09:03:22;7.07;;;4.85;;
13611;SDS011;6877;51.436;6.774;2023-05-20T09:05:49;15.90;;;4.78;;
13611;SDS011;6877;51.436;6.774;2023-05-20T09:08:23;8.20;;;5.55;;
13611;SDS011;6877;51.436;6.774;2023-05-20T09:10:53;10.63;;;5.13;;
13611;SDS011;6877;51.436;6.774;2023-05-20T09:13:19;7.38;;;4.80;;
13611;SDS011;6877;51.436;6.774;2023-05-20T09:15:46;7.68;;;5.20;;
13611;SDS011;6877;51.436;6.774;2023-05-20T09:18:12;7.70;;;4.82;;
13611;SDS011;6877;51.436;6.774;2023-05-20T09:20:39;7.03;;;5.15;;
13611;SDS011;6877;51.436;6.774;2023-05-20T09:23:07;9.55;;;5.88;;
13611;SDS011;6877;51.436;6.774;2023-05-20T09:25:35;10.93;;;5.53;;
13611;SDS011;6877;51.436;6.774;2023-05-20T09:28:05;12.57;;;6.32;;
13611;SDS011;6877;51.436;6.774;2023-05-20T09:30:32;9.20;;;5.22;;
13611;SDS011;6877;51.436;6.774;2023-05-20T09:33:04;9.95;;;5.53;;
13611;SDS011;6877;51.436;6.774;2023-05-20T09:35:37;9.52;;;6.43;;
13611;SDS011;6877;51.436;6.774;2023-05-20T09:38:04;8.55;;;5.70;;
13611;SDS011;6877;51.436;6.774;2023-05-20T09:40:39;9.05;;;5.72;;
13611;SDS011;6877;51.436;6.774;2023-05-20T09:43:15;8.43;;;6.18;;
13611;SDS011;6877;51.436;6.774;2023-05-20T09:45:48;12.48;;;5.85;;
13611;SDS011;6877;51.436;6.774;2023-05-20T09:48:15;12.93;;;7.38;;
13611;SDS011;6877;51.436;6.774;2023-05-20T09:50:41;9.68;;;6.00;;
13611;SDS011;6877;51.436;6.774;2023-05-20T09:53:13;10.25;;;5.70;;
13611;SDS011;6877;51.436;6.774;2023-05-20T09:55:40;11.18;;;6.60;;
13611;SDS011;6877;51.436;6.774;2023-05-20T09:58:07;13.43;;;7.15;;
13611;SDS011;6877;51.436;6.774;2023-05-20T10:00:35;10.40;;;6.82;;
13611;SDS011;6877;51.436;6.774;2023-05-20T10:03:01;13.52;;;6.03;;
13611;SDS011;6877;51.436;6.774;2023-05-20T10:05:35;14.07;;;7.53;;
13611;SDS011;6877;51.436;6.774;2023-05-20T10:16:42;11.20;;;6.63;;
13611;SDS011;6877;51.436;6.774;2023-05-20T10:19:30;11.75;;;7.78;;
13611;SDS011;6877;51.436;6.774;2023-05-20T10:22:05;9.27;;;6.95;;
13611;SDS011;6877;51.436;6.774;2023-05-20T10:24:42;8.23;;;6.43;;
13611;SDS011;6877;51.436;6.774;2023-05-20T10:27:16;14.30;;;7.35;;
13611;SDS011;6877;51.436;6.774;2023-05-20T10:29:55;12.70;;;7.10;;
13611;SDS011;6877;51.436;6.774;2023-05-20T10:32:25;22.48;;;8.25;;
13611;SDS011;6877;51.436;6.774;2023-05-20T10:35:03;12.48;;;7.53;;
13611;SDS011;6877;51.436;6.774;2023-05-20T10:37:42;11.77;;;6.85;;
13611;SDS011;6877;51.436;6.774;2023-05-20T10:40:17;13.80;;;7.65;;
13611;SDS011;6877;51.436;6.774;2023-05-20T10:42:45;12.07;;;6.78;;
13611;SDS011;6877;51.436;6.774;2023-05-20T10:45:25;11.32;;;6.95;;
13611;SDS011;6877;51.436;6.774;2023-05-20T10:47:56;10.98;;;6.85;;
13611;SDS011;6877;51.436;6.774;2023-05-20T10:50:39;11.77;;;6.70;;
13611;SDS011;6877;51.436;6.774;2023-05-20T10:53:05;8.63;;;6.50;;
13611;SDS011;6877;51.436;6.774;2023-05-20T10:55:40;10.43;;;6.60;;
13611;SDS011;6877;51.436;6.774;2023-05-20T10:58:12;10.07;;;7.05;;
13611;SDS011;6877;51.436;6.774;2023-05-20T11:00:39;12.30;;;6.07;;
13611;SDS011;6877;51.436;6.774;2023-05-20T11:03:06;11.75;;;6.53;;
13611;SDS011;6877;51.436;6.774;2023-05-20T11:05:33;9.85;;;5.90;;
13611;SDS011;6877;51.436;6.774;2023-05-20T11:08:01;7.75;;;5.82;;
13611;SDS011;6877;51.436;6.774;2023-05-20T11:10:29;10.73;;;6.43;;
13611;SDS011;6877;51.436;6.774;2023-05-20T11:12:56;8.63;;;6.18;;
13611;SDS011;6877;51.436;6.774;2023-05-20T11:15:23;9.55;;;6.03;;
13611;SDS011;6877;51.436;6.774;2023-05-20T11:17:50;9.43;;;6.20;;
13611;SDS011;6877;51.436;6.774;2023-05-20T11:20:21;9.45;;;6.00;;
13611;SDS011;6877;51.436;6.774;2023-05-20T11:22:53;11.27;;;7.28;;
13611;SDS011;6877;51.436;6.774;2023-05-20T11:25:20;11.35;;;7.22;;
13611;SDS011;6877;51.436;6.774;2023-05-20T11:27:48;9.18;;;6.13;;
13611;SDS011;6877;51.436;6.774;2023-05-20T11:30:15;9.98;;;6.22;;
13611;SDS011;6877;51.436;6.774;2023-05-20T11:32:43;11.82;;;6.80;;
13611;SDS011;6877;51.436;6.774;2023-05-20T11:35:23;18.15;;;7.22;;
13611;SDS011;6877;51.436;6.774;2023-05-20T11:37:55;9.35;;;6.22;;
13611;SDS011;6877;51.436;6.774;2023-05-20T11:40:45;9.50;;;6.15;;
13611;SDS011;6877;51.436;6.774;2023-05-20T11:43:19;9.43;;;6.55;;
13611;SDS011;6877;51.436;6.774;2023-05-20T11:45:46;8.80;;;6.93;;
13611;SDS011;6877;51.436;6.774;2023-05-20T11:48:18;11.98;;;6.95;;
13611;SDS011;6877;51.436;6.774;2023-05-20T11:50:45;9.45;;;6.07;;
13611;SDS011;6877;51.436;6.774;2023-05-20T11:53:16;8.63;;;6.22;;
13611;SDS011;6877;51.436;6.774;2023-05-20T11:55:54;12.75;;;6.13;;
13611;SDS011;6877;51.436;6.774;2023-05-20T11:58:30;8.63;;;6.45;;
13611;SDS011;6877;51.436;6.774;2023-05-20T12:00:57;13.90;;;6.53;;
13611;SDS011;6877;51.436;6.774;2023-05-20T12:03:24;9.32;;;6.20;;
13611;SDS011;6877;51.436;6.774;2023-05-20T12:05:51;8.38;;;5.97;;
13611;SDS011;6877;51.436;6.774;2023-05-20T12:08:17;10.02;;;6.45;;
13611;SDS011;6877;51.436;6.774;2023-05-20T12:10:44;10.77;;;6.50;;
13611;SDS011;6877;51.436;6.774;2023-05-20T12:13:11;7.70;;;6.05;;
13611;SDS011;6877;51.436;6.774;2023-05-20T12:15:38;7.25;;;5.75;;
13611;SDS011;6877;51.436;6.774;2023-05-20T12:18:06;9.50;;;6.18;;
13611;SDS011;6877;51.436;6.774;2023-05-20T12:20:37;8.52;;;6.30;;
13611;SDS011;6877;51.436;6.774;2023-05-20T12:23:09;10.05;;;6.55;;
13611;SDS011;6877;51.436;6.774;2023-05-20T12:25:36;13.30;;;6.60;;
13611;SDS011;6877;51.436;6.774;2023-05-20T12:28:07;7.05;;;6.35;;
13611;SDS011;6877;51.436;6.774;2023-05-20T12:30:34;8.82;;;6.13;;
13611;SDS011;6877;51.436;6.774;2023-05-20T12:33:00;7.25;;;5.82;;
13611;SDS011;6877;51.436;6.774;2023-05-20T12:35:48;9.10;;;5.97;;
13611;SDS011;6877;51.436;6.774;2023-05-20T12:38:14;6.97;;;5.22;;
13611;SDS011;6877;51.436;6.774;2023-05-20T12:40:40;9.13;;;5.88;;
13611;SDS011;6877;51.436;6.774;2023-05-20T12:43:07;7.57;;;6.10;;
13611;SDS011;6877;51.436;6.774;2023-05-20T12:45:33;8.35;;;5.53;;
13611;SDS011;6877;51.436;6.774;2023-05-20T12:48:00;11.65;;;5.90;;
13611;SDS011;6877;51.436;6.774;2023-05-20T12:50:27;9.07;;;5.47;;
13611;SDS011;6877;51.436;6.774;2023-05-20T12:52:53;8.40;;;5.93;;
13611;SDS011;6877;51.436;6.774;2023-05-20T12:55:20;8.02;;;5.65;;
13611;SDS011;6877;51.436;6.774;2023-05-20T12:57:46;8.05;;;6.03;;
13611;SDS011;6877;51.436;6.774;2023-05-20T13:00:13;7.28;;;5.05;;
13611;SDS011;6877;51.436;6.774;2023-05-20T13:02:40;9.30;;;5.30;;
13611;SDS011;6877;51.436;6.774;2023-05-20T13:05:07;6.95;;;5.93;;
13611;SDS011;6877;51.436;6.774;2023-05-20T13:07:35;8.07;;;6.38;;
13611;SDS011;6877;51.436;6.774;2023-05-20T13:10:01;6.97;;;5.18;;
13611;SDS011;6877;51.436;6.774;2023-05-20T13:12:33;6.78;;;5.07;;
13611;SDS011;6877;51.436;6.774;2023-05-20T13:15:05;6.40;;;4.68;;
13611;SDS011;6877;51.436;6.774;2023-05-20T13:17:32;10.80;;;4.35;;
13611;SDS011;6877;51.436;6.774;2023-05-20T13:19:59;7.05;;;4.72;;
13611;SDS011;6877;51.436;6.774;2023-05-20T13:22:30;5.72;;;4.95;;
13611;SDS011;6877;51.436;6.774;2023-05-20T13:24:57;10.02;;;5.50;;
13611;SDS011;6877;51.436;6.774;2023-05-20T13:27:28;11.10;;;5.45;;
13611;SDS011;6877;51.436;6.774;2023-05-20T13:29:55;10.65;;;4.72;;
13611;SDS011;6877;51.436;6.774;2023-05-20T13:32:22;7.03;;;5.30;;
13611;SDS011;6877;51.436;6.774;2023-05-20T13:34:49;5.93;;;4.95;;
13611;SDS011;6877;51.436;6.774;2023-05-20T13:37:15;7.05;;;5.07;;
13611;SDS011;6877;51.436;6.774;2023-05-20T13:39:46;7.00;;;4.82;;
13611;SDS011;6877;51.436;6.774;2023-05-20T13:42:14;10.60;;;5.65;;
13611;SDS011;6877;51.436;6.774;2023-05-20T13:44:45;8.00;;;5.72;;
13611;SDS011;6877;51.436;6.774;2023-05-20T13:47:12;9.18;;;5.85;;
13611;SDS011;6877;51.436;6.774;2023-05-20T13:49:43;10.95;;;6.13;;
13611;SDS011;6877;51.436;6.774;2023-05-20T13:52:10;9.70;;;5.00;;
13611;SDS011;6877;51.436;6.774;2023-05-20T13:54:36;10.18;;;5.18;;
13611;SDS011;6877;51.436;6.774;2023-05-20T13:57:03;6.25;;;5.13;;
13611;SDS011;6877;51.436;6.774;2023-05-20T13:59:32;9.00;;;5.30;;
13611;SDS011;6877;51.436;6.774;2023-05-20T14:01:59;8.32;;;5.05;;
13611;SDS011;6877;51.436;6.774;2023-05-20T14:04:27;6.72;;;4.68;;
13611;SDS011;6877;51.436;6.774;2023-05-20T14:06:53;6.90;;;5.50;;
13611;SDS011;6877;51.436;6.774;2023-05-20T14:09:19;9.52;;;5.35;;
13611;SDS011;6877;51.436;6.774;2023-05-20T14:11:46;6.38;;;4.50;;
13611;SDS011;6877;51.436;6.774;2023-05-20T14:14:12;7.50;;;4.72;;
13611;SDS011;6877;51.436;6.774;2023-05-20T14:16:39;4.30;;;3.90;;
13611;SDS011;6877;51.436;6.774;2023-05-20T14:19:10;5.53;;;4.22;;
13611;SDS011;6877;51.436;6.774;2023-05-20T14:21:37;5.35;;;4.25;;
13611;SDS011;6877;51.436;6.774;2023-05-20T14:24:08;6.20;;;4.70;;
13611;SDS011;6877;51.436;6.774;2023-05-20T14:26:35;6.90;;;4.75;;
13611;SDS011;6877;51.436;6.774;2023-05-20T14:29:02;4.60;;;4.18;;
13611;SDS011;6877;51.436;6.774;2023-05-20T14:31:28;5.20;;;3.92;;
13611;SDS011;6877;51.436;6.774;2023-05-20T14:33:55;5.55;;;4.07;;
13611;SDS011;6877;51.436;6.774;2023-05-20T14:36:26;9.40;;;3.53;;
13611;SDS011;6877;51.436;6.774;2023-05-20T14:38:52;7.78;;;4.18;;
13611;SDS011;6877;51.436;6.774;2023-05-20T14:41:19;8.75;;;3.90;;
13611;SDS011;6877;51.436;6.774;2023-05-20T14:43:52;4.20;;;3.55;;
13611;SDS011;6877;51.436;6.774;2023-05-20T14:46:23;5.45;;;3.95;;
13611;SDS011;6877;51.436;6.774;2023-05-20T14:48:50;11.48;;;4.32;;
13611;SDS011;6877;51.436;6.774;2023-05-20T14:51:16;6.13;;;3.50;;
13611;SDS011;6877;51.436;6.774;2023-05-20T14:53:43;4.72;;;4.10;;
13611;SDS011;6877;51.436;6.774;2023-05-20T14:56:09;7.32;;;3.75;;
13611;SDS011;6877;51.436;6.774;2023-05-20T14:58:36;7.18;;;4.38;;
13611;SDS011;6877;51.436;6.774;2023-05-20T15:01:03;4.45;;;3.58;;
13611;SDS011;6877;51.436;6.774;2023-05-20T15:03:29;4.80;;;3.72;;
13611;SDS011;6877;51.436;6.774;2023-05-20T15:06:01;4.35;;;3.95;;
13611;SDS011;6877;51.436;6.774;2023-05-20T15:08:33;4.78;;;4.28;;
13611;SDS011;6877;51.436;6.774;2023-05-20T15:10:59;6.72;;;4.45;;
13611;SDS011;6877;51.436;6.774;2023-05-20T15:13:26;5.38;;;4.15;;
13611;SDS011;6877;51.436;6.774;2023-05-20T15:15:57;9.60;;;4.30;;